createdAt,value
2023-04-17T00:01:25.665Z,97752.59
2023-04-17T00:03:53.152Z,97751.78
2023-04-17T00:06:20.005Z,97750.66
2023-04-17T00:08:46.944Z,97750.09
2023-04-17T00:11:13.619Z,97740.03
2023-04-17T00:13:40.364Z,97758.22
2023-04-17T00:16:08.421Z,97755.28
2023-04-17T00:18:35.184Z,97736.03
2023-04-17T00:21:01.908Z,97742.84
2023-04-17T00:23:28.671Z,97747.78
2023-04-17T00:25:55.359Z,97753.56
2023-04-17T00:28:22.054Z,97735.63
2023-04-17T00:30:48.701Z,97734.81
2023-04-17T00:33:15.736Z,97752.81
2023-04-17T00:35:42.399Z,97738.34
2023-04-17T00:38:09.437Z,97737.97
2023-04-17T00:40:36.411Z,97737.81
2023-04-17T00:43:04.008Z,97737.38
2023-04-17T00:45:31.248Z,97744.13
2023-04-17T00:48:00.418Z,97744.28
2023-04-17T00:50:28.133Z,97734.97
2023-04-17T00:52:55.289Z,97735.44
2023-04-17T00:55:22.164Z,97741.34
2023-04-17T00:57:52.141Z,97734.91
2023-04-17T01:00:18.838Z,97741.34
2023-04-17T01:02:46.641Z,97730.63
2023-04-17T01:05:13.742Z,97743.59
2023-04-17T01:07:41.423Z,97733.69
2023-04-17T01:10:08.999Z,97746.06
2023-04-17T01:12:36.702Z,97734.75
2023-04-17T01:15:03.521Z,97726.78
2023-04-17T01:17:30.178Z,97736.72
2023-04-17T01:19:57.514Z,97738.25
2023-04-17T01:22:24.171Z,97732.66
2023-04-17T01:24:51.139Z,97734.28
2023-04-17T01:27:17.802Z,97740.22
2023-04-17T01:29:45.077Z,97727.69
2023-04-17T01:32:11.780Z,97739.03
2023-04-17T01:34:38.437Z,97750.03
2023-04-17T01:37:05.212Z,97739.16
2023-04-17T01:39:31.915Z,97745.47
2023-04-17T01:41:58.684Z,97740.66
2023-04-17T01:44:25.574Z,97750.34
2023-04-17T01:46:52.301Z,97736.53
2023-04-17T01:49:19.841Z,97745.09
2023-04-17T01:51:46.497Z,97750.03
2023-04-17T01:54:15.565Z,97751.75
2023-04-17T01:56:42.559Z,97753.03
2023-04-17T01:59:09.995Z,97742.63
2023-04-17T02:01:37.124Z,97743.97
2023-04-17T02:04:04.218Z,97749.22
2023-04-17T02:06:32.176Z,97742.09
2023-04-17T02:08:59.625Z,97748.16
2023-04-17T02:11:26.526Z,97750.66
2023-04-17T02:13:53.547Z,97748.44
2023-04-17T02:16:21.917Z,97760.00
2023-04-17T02:18:50.131Z,97747.63
2023-04-17T02:21:16.829Z,97741.69
2023-04-17T02:23:43.915Z,97752.88
2023-04-17T02:26:10.668Z,97744.78
2023-04-17T02:28:37.393Z,97746.72
2023-04-17T02:31:08.808Z,97745.59
2023-04-17T02:33:39.385Z,97739.97
2023-04-17T02:36:09.376Z,97751.28
2023-04-17T02:38:37.850Z,97740.66
2023-04-17T02:41:05.527Z,97734.47
2023-04-17T02:43:32.245Z,97736.41
2023-04-17T02:45:58.984Z,97738.38
2023-04-17T02:48:25.905Z,97727.66
2023-04-17T02:50:52.636Z,97744.44
2023-04-17T02:53:19.308Z,97736.03
2023-04-17T02:55:46.054Z,97743.69
2023-04-17T02:58:13.534Z,97750.59
2023-04-17T03:00:40.937Z,97746.47
2023-04-17T03:03:08.358Z,97734.22
2023-04-17T03:05:36.076Z,97748.53
2023-04-17T03:08:02.817Z,97743.56
2023-04-17T03:10:29.559Z,97750.31
2023-04-17T03:12:56.162Z,97744.53
2023-04-17T03:15:22.942Z,97750.09
2023-04-17T03:17:49.685Z,97751.81
2023-04-17T03:20:16.496Z,97747.66
2023-04-17T03:22:43.134Z,97757.31
2023-04-17T03:25:11.254Z,97751.78
2023-04-17T03:27:38.844Z,97748.09
2023-04-17T03:30:06.463Z,97759.66
2023-04-17T03:32:33.354Z,97752.34
2023-04-17T03:35:00.262Z,97757.88
2023-04-17T03:37:26.925Z,97759.66
2023-04-17T03:39:53.689Z,97762.44
2023-04-17T03:42:20.364Z,97757.03
2023-04-17T03:44:46.929Z,97765.59
2023-04-17T03:47:13.655Z,97763.25
2023-04-17T03:49:40.416Z,97756.34
2023-04-17T03:52:07.171Z,97762.03
2023-04-17T03:54:35.899Z,97761.72
2023-04-17T03:57:03.539Z,97761.03
2023-04-17T03:59:33.674Z,97762.81
2023-04-17T04:02:00.716Z,97764.75
2023-04-17T04:04:27.724Z,97770.69
2023-04-17T04:06:58.030Z,97767.94
2023-04-17T04:09:27.616Z,97767.94
2023-04-17T04:11:54.375Z,97772.34
2023-04-17T04:14:21.090Z,97770.16
2023-04-17T04:16:47.686Z,97751.41
2023-04-17T04:19:14.598Z,97768.63
2023-04-17T04:21:42.456Z,97775.81
2023-04-17T04:24:10.156Z,97778.44
2023-04-17T04:26:37.971Z,97773.72
2023-04-17T04:29:04.748Z,97783.00
2023-04-17T04:31:31.989Z,97777.84
2023-04-17T04:33:59.480Z,97777.84
2023-04-17T04:36:30.006Z,97784.63
2023-04-17T04:39:00.931Z,97781.44
2023-04-17T04:41:30.190Z,97779.66
2023-04-17T04:43:56.901Z,97779.94
2023-04-17T04:46:23.569Z,97785.31
2023-04-17T04:48:50.289Z,97780.63
2023-04-17T04:51:19.034Z,97792.09
2023-04-17T04:53:46.110Z,97792.22
2023-04-17T04:56:12.812Z,97793.88
2023-04-17T04:58:39.478Z,97789.06
2023-04-17T05:01:06.999Z,97799.53
2023-04-17T05:03:34.060Z,97786.00
2023-04-17T05:06:00.895Z,97789.81
2023-04-17T05:08:27.573Z,97801.94
2023-04-17T05:10:54.297Z,97798.66
2023-04-17T05:13:21.130Z,97793.69
2023-04-17T05:15:47.847Z,97801.56
2023-04-17T05:18:14.503Z,97802.91
2023-04-17T05:20:41.303Z,97800.59
2023-04-17T05:23:07.983Z,97809.97
2023-04-17T05:25:34.723Z,97797.28
2023-04-17T05:28:01.462Z,97804.03
2023-04-17T05:30:28.204Z,97812.16
2023-04-17T05:32:54.888Z,97818.09
2023-04-17T05:35:21.715Z,97808.31
2023-04-17T05:37:48.456Z,97815.06
2023-04-17T05:40:15.521Z,97820.97
2023-04-17T05:42:42.528Z,97812.03
2023-04-17T05:45:13.535Z,97815.94
2023-04-17T05:47:40.459Z,97815.56
2023-04-17T05:50:08.249Z,97828.81
2023-04-17T05:52:36.489Z,97822.00
2023-04-17T05:55:04.943Z,97820.66
2023-04-17T05:57:31.591Z,97820.94
2023-04-17T05:59:58.219Z,97819.75
2023-04-17T06:02:25.141Z,97817.13
2023-04-17T06:04:52.143Z,97831.44
2023-04-17T06:07:19.681Z,97826.78
2023-04-17T06:09:46.385Z,97822.75
2023-04-17T06:12:16.206Z,97835.72
2023-04-17T06:14:43.605Z,97828.97
2023-04-17T06:17:10.685Z,97822.06
2023-04-17T06:19:37.485Z,97836.75
2023-04-17T06:22:04.156Z,97830.19
2023-04-17T06:24:30.898Z,97835.22
2023-04-17T06:26:58.025Z,97838.09
2023-04-17T06:29:24.696Z,97827.19
2023-04-17T06:31:51.466Z,97827.66
2023-04-17T06:34:18.116Z,97840.88
2023-04-17T06:36:44.802Z,97838.88
2023-04-17T06:39:11.648Z,97843.84
2023-04-17T06:41:38.366Z,97843.47
2023-04-17T06:44:05.352Z,97840.38
2023-04-17T06:46:32.216Z,97844.50
2023-04-17T06:48:59.692Z,97844.31
2023-04-17T06:51:27.721Z,97851.81
2023-04-17T06:53:54.360Z,97841.78
2023-04-17T06:56:21.133Z,97851.25
2023-04-17T06:58:47.756Z,97861.38
2023-04-17T07:01:14.953Z,97865.94
2023-04-17T07:03:42.490Z,97852.06
2023-04-17T07:06:09.672Z,97865.22
2023-04-17T07:08:36.594Z,97871.97
2023-04-17T07:11:03.290Z,97865.72
2023-04-17T07:13:33.221Z,97865.88
2023-04-17T07:16:01.481Z,97869.41
2023-04-17T07:18:29.791Z,97890.38
2023-04-17T07:20:56.949Z,97880.22
2023-04-17T07:23:23.792Z,97872.94
2023-04-17T07:25:50.706Z,97888.41
2023-04-17T07:28:18.006Z,97887.88
2023-04-17T07:30:44.769Z,97895.63
2023-04-17T07:33:11.496Z,97900.34
2023-04-17T07:35:38.342Z,97906.66
2023-04-17T07:38:05.130Z,97916.94
2023-04-17T07:40:32.134Z,97904.09
2023-04-17T07:42:58.874Z,97905.59
2023-04-17T07:45:29.786Z,97902.06
2023-04-17T07:47:56.471Z,97895.34
2023-04-17T07:50:23.921Z,97912.31
2023-04-17T07:52:50.938Z,97908.78
2023-04-17T07:55:17.668Z,97901.69
2023-04-17T07:57:46.667Z,97913.47
2023-04-17T08:00:14.844Z,97906.84
2023-04-17T08:02:44.733Z,97913.69
2023-04-17T08:05:11.741Z,97907.81
2023-04-17T08:07:38.671Z,97923.31
2023-04-17T08:10:06.272Z,97915.41
2023-04-17T08:12:33.244Z,97919.50
2023-04-17T08:14:59.881Z,97921.66
2023-04-17T08:17:30.159Z,97913.13
2023-04-17T08:20:02.199Z,97913.47
2023-04-17T08:22:29.218Z,97910.81
2023-04-17T08:24:58.827Z,97922.63
2023-04-17T08:27:25.868Z,97926.75
2023-04-17T08:29:53.776Z,97920.75
2023-04-17T08:32:21.493Z,97935.75
2023-04-17T08:34:48.328Z,97931.31
2023-04-17T08:37:15.192Z,97933.03
2023-04-17T08:39:41.932Z,97935.09
2023-04-17T08:42:17.760Z,97930.22
2023-04-17T08:44:45.811Z,97942.16
2023-04-17T08:47:13.215Z,97941.69
2023-04-17T08:49:43.652Z,97946.09
2023-04-17T08:52:11.053Z,97944.78
2023-04-17T08:54:39.002Z,97947.59
2023-04-17T08:57:06.095Z,97943.56
2023-04-17T08:59:33.128Z,97931.31
2023-04-17T09:02:09.573Z,97941.97
2023-04-17T09:04:41.971Z,97953.16
2023-04-17T09:07:11.244Z,97952.44
2023-04-17T09:09:54.193Z,97957.69
2023-04-17T09:12:22.373Z,97940.75
2023-04-17T09:14:49.215Z,97952.81
2023-04-17T09:17:17.504Z,97938.66
2023-04-17T09:20:07.699Z,97950.69
2023-04-17T09:22:36.389Z,97939.19
2023-04-17T09:25:03.743Z,97938.88
2023-04-17T09:27:30.473Z,97945.31
2023-04-17T09:30:01.884Z,97952.53
2023-04-17T09:32:30.720Z,97947.91
2023-04-17T09:35:01.932Z,97945.34
2023-04-17T09:37:50.682Z,97949.06
2023-04-17T09:40:22.322Z,97951.63
2023-04-17T09:43:00.380Z,97951.66
2023-04-17T09:45:35.981Z,97957.69
2023-04-17T09:48:12.939Z,97951.78
2023-04-17T09:50:40.454Z,97946.59
2023-04-17T09:53:07.953Z,97951.97
2023-04-17T09:55:36.710Z,97956.00
2023-04-17T09:58:05.160Z,97959.19
2023-04-17T10:00:31.944Z,97962.69
2023-04-17T10:02:59.518Z,97950.88
2023-04-17T10:05:30.318Z,97952.81
2023-04-17T10:07:57.540Z,97951.66
2023-04-17T10:10:31.361Z,97945.47
2023-04-17T10:13:00.672Z,97946.88
2023-04-17T10:15:27.862Z,97942.41
2023-04-17T10:17:56.665Z,97938.28
2023-04-17T10:20:23.689Z,97943.22
2023-04-17T10:22:54.818Z,97935.25
2023-04-17T10:25:28.947Z,97935.16
2023-04-17T10:28:02.597Z,97928.13
2023-04-17T10:30:54.937Z,97942.59
2023-04-17T10:33:25.008Z,97931.94
2023-04-17T10:35:52.129Z,97937.75
2023-04-17T10:38:35.482Z,97927.06
2023-04-17T10:41:04.258Z,97929.28
2023-04-17T10:43:31.499Z,97936.06
2023-04-17T10:46:02.888Z,97920.06
2023-04-17T10:48:36.711Z,97924.31
2023-04-17T10:51:21.765Z,97924.13
2023-04-17T10:53:49.760Z,97915.44
2023-04-17T10:56:24.425Z,97911.91
2023-04-17T10:58:57.912Z,97920.75
2023-04-17T11:01:49.531Z,97915.81
2023-04-17T11:04:23.879Z,97906.63
2023-04-17T11:06:52.826Z,97910.00
2023-04-17T11:09:24.767Z,97901.31
2023-04-17T11:11:51.672Z,97913.34
2023-04-17T11:14:21.236Z,97898.66
2023-04-17T11:16:49.901Z,97907.06
2023-04-17T11:19:21.445Z,97909.59
2023-04-17T11:21:49.636Z,97922.97
2023-04-17T11:24:27.762Z,97915.34
2023-04-17T11:26:56.753Z,97903.81
2023-04-17T11:29:24.308Z,97896.94
2023-04-17T11:31:52.930Z,97899.19
2023-04-17T11:34:19.967Z,97911.44
2023-04-17T11:36:50.897Z,97901.66
2023-04-17T11:39:18.778Z,97897.53
2023-04-17T11:41:46.577Z,97907.13
2023-04-17T11:44:14.097Z,97899.13
2023-04-17T11:46:41.052Z,97895.19
2023-04-17T11:49:08.244Z,97891.22
2023-04-17T11:51:35.521Z,97891.38
2023-04-17T11:54:02.192Z,97894.97
2023-04-17T11:56:30.073Z,97877.38
2023-04-17T11:58:58.296Z,97905.28
2023-04-17T12:01:28.491Z,97900.03
2023-04-17T12:03:57.039Z,97911.47
2023-04-17T12:06:24.895Z,97906.09
2023-04-17T12:08:54.041Z,97903.09
2023-04-17T12:11:32.754Z,97881.75
2023-04-17T12:14:00.628Z,97893.19
2023-04-17T12:16:29.285Z,97904.78
2023-04-17T12:18:56.887Z,97910.16
2023-04-17T12:21:24.210Z,97914.25
2023-04-17T12:23:51.233Z,97907.13
2023-04-17T12:26:17.966Z,97897.63
2023-04-17T12:28:45.003Z,97898.09
2023-04-17T12:31:11.804Z,97900.09
2023-04-17T12:33:38.630Z,97897.50
2023-04-17T12:36:06.960Z,97892.28
2023-04-17T12:38:33.875Z,97890.63
2023-04-17T12:41:00.697Z,97898.44
2023-04-17T12:43:27.432Z,97892.84
2023-04-17T12:45:54.128Z,97917.63
2023-04-17T12:48:21.161Z,97904.09
2023-04-17T12:50:47.909Z,97913.69
2023-04-17T12:53:15.018Z,97907.19
2023-04-17T12:55:44.072Z,97909.09
2023-04-17T12:58:13.004Z,97897.34
2023-04-17T13:00:43.952Z,97903.91
2023-04-17T13:03:12.253Z,97902.34
2023-04-17T13:05:39.697Z,97901.47
2023-04-17T13:08:06.500Z,97899.16
2023-04-17T13:10:34.412Z,97892.63
2023-04-17T13:13:02.460Z,97880.94
2023-04-17T13:15:29.179Z,97883.50
2023-04-17T13:17:56.249Z,97888.28
2023-04-17T13:20:23.316Z,97890.81
2023-04-17T13:22:50.063Z,97884.94
2023-04-17T13:25:17.011Z,97895.69
2023-04-17T13:27:43.928Z,97893.81
2023-04-17T13:30:11.086Z,97883.78
2023-04-17T13:32:39.590Z,97892.34
2023-04-17T13:35:08.994Z,97886.00
2023-04-17T13:37:35.642Z,97900.13
2023-04-17T13:40:05.417Z,97892.41
2023-04-17T13:42:32.492Z,97893.41
2023-04-17T13:44:59.325Z,97877.88
2023-04-17T13:47:27.441Z,97885.41
2023-04-17T13:49:54.292Z,97866.63
2023-04-17T13:52:21.042Z,97871.53
2023-04-17T13:54:48.637Z,97863.31
2023-04-17T13:57:18.615Z,97864.47
2023-04-17T13:59:45.608Z,97857.81
2023-04-17T14:02:12.410Z,97864.19
2023-04-17T14:04:39.373Z,97868.47
2023-04-17T14:07:06.386Z,97880.81
2023-04-17T14:09:33.293Z,97866.69
2023-04-17T14:12:00.298Z,97858.72
2023-04-17T14:14:29.096Z,97864.81
2023-04-17T14:16:56.442Z,97849.06
2023-04-17T14:19:23.874Z,97864.16
2023-04-17T14:21:50.864Z,97862.38
2023-04-17T14:24:17.885Z,97868.91
2023-04-17T14:26:44.859Z,97863.78
2023-04-17T14:29:14.321Z,97860.19
2023-04-17T14:31:41.502Z,97862.44
2023-04-17T14:34:08.512Z,97858.41
2023-04-17T14:36:35.966Z,97855.53
2023-04-17T14:39:02.803Z,97864.97
2023-04-17T14:41:34.141Z,97844.75
2023-04-17T14:44:01.192Z,97834.34
2023-04-17T14:46:28.341Z,97828.38
2023-04-17T14:48:58.818Z,97842.31
2023-04-17T14:51:27.255Z,97844.63
2023-04-17T14:53:54.369Z,97838.38
2023-04-17T14:56:22.051Z,97850.19
2023-04-17T14:58:49.328Z,97851.50
2023-04-17T15:01:16.228Z,97843.22
2023-04-17T15:03:46.814Z,97850.91
2023-04-17T15:06:15.554Z,97840.81
2023-04-17T15:08:42.788Z,97841.03
2023-04-17T15:11:09.666Z,97850.63
2023-04-17T15:13:36.665Z,97856.59
2023-04-17T15:16:03.958Z,97851.84
2023-04-17T15:18:31.128Z,97852.25
2023-04-17T15:20:58.281Z,97849.09
2023-04-17T15:23:26.894Z,97866.25
2023-04-17T15:25:55.766Z,97849.81
2023-04-17T15:28:22.835Z,97865.47
2023-04-17T15:30:52.758Z,97854.84
2023-04-17T15:33:20.429Z,97854.75
2023-04-17T15:35:47.607Z,97843.81
2023-04-17T15:38:14.645Z,97855.50
2023-04-17T15:40:41.728Z,97852.78
2023-04-17T15:43:10.802Z,97856.34
2023-04-17T15:45:37.850Z,97845.66
2023-04-17T15:48:05.172Z,97845.75
2023-04-17T15:50:32.238Z,97859.56
2023-04-17T15:52:59.448Z,97860.53
2023-04-17T15:55:26.383Z,97867.06
2023-04-17T15:57:53.511Z,97864.06
2023-04-17T16:00:20.979Z,97853.50
2023-04-17T16:02:49.303Z,97849.41
2023-04-17T16:05:16.771Z,97857.00
2023-04-17T16:07:44.180Z,97845.84
2023-04-17T16:10:14.803Z,97848.47
2023-04-17T16:12:46.307Z,97859.09
2023-04-17T16:15:17.781Z,97849.59
2023-04-17T16:17:45.666Z,97849.78
2023-04-17T16:20:13.370Z,97857.81
2023-04-17T16:22:40.768Z,97850.69
2023-04-17T16:25:12.364Z,97844.50
2023-04-17T16:27:40.481Z,97839.47
2023-04-17T16:30:08.760Z,97846.50
2023-04-17T16:32:35.922Z,97849.13
2023-04-17T16:35:03.158Z,97839.28
2023-04-17T16:37:30.198Z,97840.66
2023-04-17T16:39:57.278Z,97834.81
2023-04-17T16:42:24.546Z,97841.50
2023-04-17T16:44:52.753Z,97851.63
2023-04-17T16:47:19.986Z,97849.75
2023-04-17T16:49:50.213Z,97844.66
2023-04-17T16:52:17.904Z,97839.06
2023-04-17T16:54:44.924Z,97852.28
2023-04-17T16:57:11.908Z,97865.31
2023-04-17T16:59:39.019Z,97839.13
2023-04-17T17:02:06.142Z,97852.03
2023-04-17T17:04:33.383Z,97841.53
2023-04-17T17:07:00.668Z,97856.53
2023-04-17T17:09:28.163Z,97853.06
2023-04-17T17:11:55.358Z,97849.78
2023-04-17T17:14:22.461Z,97844.84
2023-04-17T17:16:49.818Z,97853.13
2023-04-17T17:19:17.108Z,97845.69
2023-04-17T17:21:44.101Z,97836.31
2023-04-17T17:24:11.396Z,97837.31
2023-04-17T17:26:38.584Z,97841.59
2023-04-17T17:29:08.240Z,97839.47
2023-04-17T17:31:35.634Z,97851.81
2023-04-17T17:34:17.199Z,97844.22
2023-04-17T17:36:50.135Z,97848.34
2023-04-17T17:39:17.348Z,97858.75
2023-04-17T17:41:47.215Z,97863.34
2023-04-17T17:44:15.603Z,97840.28
2023-04-17T17:46:43.045Z,97840.41
2023-04-17T17:49:10.511Z,97851.59
2023-04-17T17:51:37.693Z,97853.53
2023-04-17T17:54:06.138Z,97856.00
2023-04-17T17:56:35.218Z,97852.50
2023-04-17T17:59:02.703Z,97869.78
2023-04-17T18:01:32.613Z,97852.25
2023-04-17T18:04:00.857Z,97852.78
2023-04-17T18:06:32.128Z,97866.50
2023-04-17T18:09:00.873Z,97866.16
2023-04-17T18:11:30.023Z,97852.59
2023-04-17T18:13:58.316Z,97871.41
2023-04-17T18:16:25.937Z,97850.75
2023-04-17T18:18:56.219Z,97871.22
2023-04-17T18:21:23.887Z,97850.03
2023-04-17T18:23:55.770Z,97860.25
2023-04-17T18:26:25.200Z,97854.84
2023-04-17T18:28:55.065Z,97858.03
2023-04-17T18:31:24.815Z,97868.00
2023-04-17T18:36:33.703Z,97872.81
2023-04-17T18:39:02.167Z,97862.97
2023-04-17T18:46:57.231Z,97883.28
2023-04-17T18:49:25.605Z,97863.44
2023-04-17T18:51:55.579Z,97877.16
2023-04-17T18:54:31.207Z,97893.09
2023-04-17T18:57:00.326Z,97871.44
2023-04-17T18:59:32.416Z,97874.75
2023-04-17T19:02:03.625Z,97871.53
2023-04-17T19:04:31.748Z,97869.19
2023-04-17T19:06:59.565Z,97867.84
2023-04-17T19:09:27.209Z,97873.09
2023-04-17T19:11:59.324Z,97894.84
2023-04-17T19:14:26.646Z,97877.22
2023-04-17T19:16:55.313Z,97886.16
2023-04-17T19:19:24.571Z,97864.41
2023-04-17T19:24:35.245Z,97889.31
2023-04-17T19:27:03.561Z,97883.50
2023-04-17T19:29:32.448Z,97871.66
2023-04-17T19:32:01.528Z,97870.63
2023-04-17T19:34:29.026Z,97869.88
2023-04-17T19:36:57.948Z,97867.34
2023-04-17T19:39:28.495Z,97866.91
2023-04-17T19:41:56.972Z,97866.44
2023-04-17T19:44:28.976Z,97865.47
2023-04-17T19:46:57.140Z,97890.13
2023-04-17T20:07:02.103Z,97863.16
2023-04-17T20:17:43.145Z,97865.63
2023-04-17T20:20:17.618Z,97870.34
2023-04-17T21:22:27.610Z,97854.88
